createdAt,value
2022-12-11T00:01:11.771Z,30.77
2022-12-11T00:03:40.389Z,24.17
2022-12-11T00:06:09.298Z,26.67
2022-12-11T00:08:37.857Z,27.58
2022-12-11T00:11:09.697Z,28.08
2022-12-11T00:13:37.887Z,29.02
2022-12-11T00:16:07.844Z,24.48
2022-12-11T00:18:35.979Z,28.50
2022-12-11T00:21:04.659Z,27.75
2022-12-11T00:23:33.519Z,29.33
2022-12-11T00:26:01.389Z,27.05
2022-12-11T00:28:31.140Z,33.47
2022-12-11T00:30:58.991Z,28.58
2022-12-11T00:33:29.139Z,28.75
2022-12-11T00:35:56.899Z,29.90
2022-12-11T00:38:25.120Z,28.45
2022-12-11T00:40:53.037Z,28.38
2022-12-11T00:43:21.904Z,28.38
2022-12-11T00:45:54.883Z,30.77
2022-12-11T00:48:22.723Z,31.55
2022-12-11T00:50:50.892Z,29.58
2022-12-11T00:53:18.867Z,34.38
2022-12-11T00:55:46.607Z,32.92
2022-12-11T00:58:15.774Z,29.92
2022-12-11T01:00:45.196Z,32.00
2022-12-11T01:03:16.711Z,30.73
2022-12-11T01:05:52.846Z,37.88
2022-12-11T01:08:21.174Z,44.97
2022-12-11T01:10:48.307Z,34.70
2022-12-11T01:13:16.243Z,32.92
2022-12-11T01:15:46.907Z,38.25
2022-12-11T01:18:16.629Z,35.22
2022-12-11T01:20:44.958Z,32.88
2022-12-11T01:23:18.830Z,36.60
2022-12-11T01:25:47.293Z,32.17
2022-12-11T01:28:15.169Z,37.58
2022-12-11T01:30:44.098Z,35.28
2022-12-11T01:33:12.808Z,32.00
2022-12-11T01:35:42.402Z,31.23
2022-12-11T01:38:11.383Z,33.50
2022-12-11T01:40:39.253Z,31.63
2022-12-11T01:43:07.168Z,36.50
2022-12-11T01:45:42.215Z,39.58
2022-12-11T01:48:13.657Z,33.75
2022-12-11T01:50:49.133Z,35.60
2022-12-11T01:53:22.121Z,39.97
2022-12-11T01:55:54.180Z,34.55
2022-12-11T01:58:24.738Z,35.28
2022-12-11T02:00:54.430Z,32.90
2022-12-11T02:03:23.013Z,36.25
2022-12-11T02:05:52.552Z,33.55
2022-12-11T02:08:21.025Z,36.15
2022-12-11T02:11:03.427Z,41.10
2022-12-11T02:13:37.680Z,40.65
2022-12-11T02:16:13.178Z,36.53
2022-12-11T02:18:47.398Z,35.25
2022-12-11T02:21:23.315Z,43.60
2022-12-11T02:24:24.609Z,40.78
2022-12-11T02:27:12.609Z,40.00
2022-12-11T02:29:49.765Z,39.53
2022-12-11T02:32:21.684Z,42.08
2022-12-11T02:34:57.793Z,42.20
2022-12-11T02:37:30.565Z,38.80
2022-12-11T02:39:59.036Z,39.40
2022-12-11T02:42:31.357Z,43.10
2022-12-11T02:45:03.418Z,41.20
2022-12-11T02:47:32.399Z,34.33
2022-12-11T02:50:03.668Z,37.42
2022-12-11T02:52:34.365Z,36.90
2022-12-11T02:55:04.541Z,35.08
2022-12-11T02:57:39.813Z,36.75
2022-12-11T03:02:38.730Z,34.13
2022-12-11T03:05:07.203Z,36.30
2022-12-11T03:07:39.621Z,34.70
2022-12-11T03:10:10.429Z,38.35
2022-12-11T03:12:42.335Z,35.38
2022-12-11T03:15:15.662Z,35.78
2022-12-11T03:17:58.547Z,38.90
2022-12-11T03:20:36.476Z,33.17
2022-12-11T03:23:14.119Z,38.42
2022-12-11T03:25:47.965Z,39.70
2022-12-11T03:28:19.837Z,37.55
2022-12-11T03:30:52.798Z,37.67
2022-12-11T03:33:26.021Z,47.08
2022-12-11T03:35:57.376Z,40.45
2022-12-11T03:38:32.425Z,39.00
2022-12-11T03:41:03.377Z,43.10
2022-12-11T03:43:33.059Z,45.08
2022-12-11T03:46:02.722Z,43.45
2022-12-11T03:48:36.921Z,42.40
2022-12-11T03:51:08.052Z,42.13
2022-12-11T03:53:38.112Z,47.00
2022-12-11T03:56:08.480Z,46.60
2022-12-11T03:58:36.591Z,47.42
2022-12-11T04:01:10.618Z,42.35
2022-12-11T04:03:39.094Z,51.25
2022-12-11T04:06:07.417Z,46.25
2022-12-11T04:08:35.698Z,45.03
2022-12-11T04:11:21.677Z,44.67
2022-12-11T04:14:11.936Z,45.95
2022-12-11T04:16:40.167Z,49.72
2022-12-11T04:19:25.737Z,50.70
2022-12-11T04:24:39.778Z,54.92
2022-12-11T04:27:07.957Z,51.03
2022-12-11T04:29:36.144Z,43.88
2022-12-11T04:32:05.618Z,49.75
2022-12-11T04:34:33.432Z,48.90
2022-12-11T04:37:01.628Z,48.25
2022-12-11T04:39:29.416Z,49.42
2022-12-11T04:41:57.721Z,46.42
2022-12-11T04:44:25.495Z,47.33
2022-12-11T04:46:53.549Z,47.42
2022-12-11T04:49:22.833Z,49.67
2022-12-11T04:51:51.301Z,41.55
2022-12-11T04:54:19.066Z,47.40
2022-12-11T04:56:49.494Z,48.80
2022-12-11T04:59:17.426Z,46.78
2022-12-11T05:01:45.660Z,47.78
2022-12-11T05:04:17.141Z,46.13
2022-12-11T05:06:47.042Z,48.67
2022-12-11T05:09:15.490Z,48.67
2022-12-11T05:11:43.918Z,43.70
2022-12-11T05:14:11.760Z,44.60
2022-12-11T05:16:39.935Z,47.40
2022-12-11T05:19:07.766Z,45.65
2022-12-11T05:21:36.058Z,45.72
2022-12-11T05:24:05.772Z,47.40
2022-12-11T05:26:34.072Z,45.17
2022-12-11T05:29:01.897Z,45.25
2022-12-11T05:31:30.064Z,46.00
2022-12-11T05:33:58.389Z,47.95
2022-12-11T05:36:28.601Z,46.83
2022-12-11T05:38:57.654Z,47.13
2022-12-11T05:41:30.704Z,47.50
2022-12-11T05:43:58.702Z,45.88
2022-12-11T05:46:28.367Z,52.65
2022-12-11T05:48:58.317Z,47.45
2022-12-11T05:51:27.081Z,47.28
2022-12-11T05:53:56.973Z,49.00
2022-12-11T05:56:27.659Z,47.05
2022-12-11T05:58:57.008Z,44.00
2022-12-11T06:01:27.522Z,46.53
2022-12-11T06:03:57.071Z,43.88
2022-12-11T06:06:25.768Z,45.65
2022-12-11T06:08:54.867Z,40.47
2022-12-11T06:11:24.388Z,45.33
2022-12-11T06:13:54.726Z,48.03
2022-12-11T06:16:23.125Z,39.70
2022-12-11T06:18:52.278Z,45.75
2022-12-11T06:21:23.769Z,44.33
2022-12-11T06:23:53.544Z,47.40
2022-12-11T06:26:22.019Z,45.35
2022-12-11T06:28:51.180Z,45.25
2022-12-11T06:31:20.853Z,48.30
2022-12-11T06:33:49.537Z,43.05
2022-12-11T06:36:19.721Z,45.03
2022-12-11T06:38:48.969Z,45.13
2022-12-11T06:41:17.357Z,43.75
2022-12-11T06:43:45.619Z,47.30
2022-12-11T06:46:15.352Z,45.47
2022-12-11T06:48:46.284Z,45.83
2022-12-11T06:51:15.872Z,43.53
2022-12-11T06:53:44.738Z,45.28
2022-12-11T06:56:15.747Z,43.28
2022-12-11T06:58:45.385Z,43.55
2022-12-11T07:01:19.053Z,40.88
2022-12-11T07:03:49.420Z,44.58
2022-12-11T07:06:17.548Z,43.47
2022-12-11T07:08:45.525Z,40.85
2022-12-11T07:11:15.934Z,45.35
2022-12-11T07:13:44.192Z,50.22
2022-12-11T07:16:14.532Z,43.85
2022-12-11T07:18:44.349Z,45.35
2022-12-11T07:21:15.449Z,45.60
2022-12-11T07:23:43.805Z,41.22
2022-12-11T07:26:14.558Z,45.22
2022-12-11T07:28:43.951Z,43.65
2022-12-11T07:31:15.710Z,47.03
2022-12-11T07:33:44.260Z,39.33
2022-12-11T07:36:15.098Z,42.35
2022-12-11T07:38:43.405Z,39.67
2022-12-11T07:41:15.774Z,37.95
2022-12-11T07:43:44.349Z,43.63
2022-12-11T07:46:14.456Z,47.78
2022-12-11T07:48:44.531Z,44.55
2022-12-11T07:51:16.288Z,46.03
2022-12-11T07:53:45.518Z,41.40
2022-12-11T07:56:13.532Z,42.42
2022-12-11T07:58:41.307Z,45.97
2022-12-11T08:01:13.631Z,46.08
2022-12-11T08:03:42.134Z,41.28
2022-12-11T08:06:11.069Z,45.88
2022-12-11T08:08:41.539Z,45.83
2022-12-11T08:11:12.058Z,45.42
2022-12-11T08:13:40.793Z,73.43
2022-12-11T08:16:11.491Z,61.60
2022-12-11T08:18:40.247Z,46.70
2022-12-11T08:21:08.602Z,48.92
2022-12-11T08:23:36.927Z,48.15
2022-12-11T08:26:08.559Z,45.35
2022-12-11T08:28:37.599Z,46.88
2022-12-11T08:31:06.171Z,46.00
2022-12-11T08:33:34.536Z,50.10
2022-12-11T08:36:03.958Z,51.05
2022-12-11T08:38:32.298Z,45.38
2022-12-11T08:41:00.438Z,45.72
2022-12-11T08:43:30.986Z,44.80
2022-12-11T08:45:58.702Z,44.55
2022-12-11T08:48:26.617Z,45.70
2022-12-11T08:50:54.816Z,41.22
2022-12-11T08:53:22.521Z,44.67
2022-12-11T08:55:50.575Z,46.00
2022-12-11T08:58:18.278Z,48.55
2022-12-11T09:00:47.612Z,43.85
2022-12-11T09:03:15.525Z,49.55
2022-12-11T09:05:43.386Z,46.50
2022-12-11T09:08:11.725Z,42.50
2022-12-11T09:10:39.900Z,44.38
2022-12-11T09:13:08.143Z,43.63
2022-12-11T09:15:36.321Z,39.35
2022-12-11T09:18:05.673Z,43.78
2022-12-11T09:20:34.456Z,42.35
2022-12-11T09:23:02.674Z,40.75
2022-12-11T09:25:30.336Z,43.05
2022-12-11T09:27:58.001Z,45.45
2022-12-11T09:30:26.028Z,43.72
2022-12-11T09:32:54.451Z,40.67
2022-12-11T09:35:23.518Z,45.33
2022-12-11T09:37:51.378Z,43.03
2022-12-11T09:40:19.947Z,35.95
2022-12-11T09:42:55.863Z,37.40
2022-12-11T09:45:23.815Z,43.75
2022-12-11T09:47:56.196Z,37.80
2022-12-11T09:50:28.369Z,37.97
2022-12-11T09:53:09.347Z,41.05
2022-12-11T09:55:52.398Z,39.65
2022-12-11T09:58:26.150Z,45.25
2022-12-11T10:01:01.687Z,44.17
2022-12-11T10:03:47.974Z,38.60
2022-12-11T10:06:26.286Z,34.00
2022-12-11T10:09:04.955Z,38.25
2022-12-11T10:11:48.284Z,46.53
2022-12-11T10:14:27.250Z,41.42
2022-12-11T10:17:01.295Z,36.63
2022-12-11T10:19:32.028Z,39.15
2022-12-11T10:37:07.639Z,38.60
2022-12-11T10:39:35.551Z,43.78
2022-12-11T10:42:17.445Z,42.92
2022-12-11T10:44:57.766Z,40.60
2022-12-11T10:47:25.880Z,42.92
2022-12-11T10:49:58.618Z,37.72
2022-12-11T10:52:28.773Z,40.55
2022-12-11T10:55:00.834Z,42.42
2022-12-11T10:57:30.694Z,43.40
2022-12-11T11:00:01.039Z,39.13
2022-12-11T11:02:33.366Z,42.35
2022-12-11T11:05:14.636Z,38.50
2022-12-11T11:07:42.513Z,40.70
2022-12-11T11:10:18.282Z,42.08
2022-12-11T11:12:48.230Z,38.10
2022-12-11T11:15:20.047Z,39.33
2022-12-11T11:17:55.089Z,37.83
2022-12-11T11:20:28.138Z,40.20
2022-12-11T11:22:58.645Z,47.10
2022-12-11T11:25:29.388Z,46.85
2022-12-11T11:27:59.020Z,52.63
2022-12-11T11:30:28.237Z,60.03
2022-12-11T11:32:57.823Z,47.25
2022-12-11T11:35:28.669Z,37.45
2022-12-11T11:38:04.140Z,37.97
2022-12-11T11:40:37.146Z,39.17
2022-12-11T11:43:17.905Z,42.70
2022-12-11T11:45:52.622Z,38.97
2022-12-11T11:48:41.124Z,36.05
2022-12-11T11:51:17.021Z,36.80
2022-12-11T11:53:49.369Z,35.95
2022-12-11T11:56:28.681Z,41.28
2022-12-11T11:59:07.255Z,37.05
2022-12-11T12:01:35.134Z,34.97
2022-12-11T12:04:04.713Z,35.22
2022-12-11T12:07:09.039Z,32.78
2022-12-11T12:09:50.739Z,34.95
2022-12-11T12:12:34.118Z,34.38
2022-12-11T12:15:14.909Z,35.67
2022-12-11T12:17:55.695Z,37.92
2022-12-11T12:20:38.684Z,33.35
2022-12-11T12:23:27.398Z,38.45
2022-12-11T12:26:05.581Z,67.10
2022-12-11T12:28:40.281Z,77.65
2022-12-11T12:31:26.659Z,45.25
2022-12-11T12:34:03.736Z,47.97
2022-12-11T12:36:40.453Z,36.08
2022-12-11T12:39:23.034Z,38.17
2022-12-11T12:42:01.372Z,66.65
2022-12-11T12:44:42.922Z,76.00
2022-12-11T12:47:14.769Z,62.15
2022-12-11T12:49:44.537Z,54.85
2022-12-11T12:52:17.606Z,59.97
2022-12-11T12:55:03.590Z,58.58
2022-12-11T12:57:32.456Z,45.75
2022-12-11T13:00:00.346Z,66.53
2022-12-11T13:02:28.519Z,72.82
2022-12-11T13:04:59.619Z,81.15
2022-12-11T13:07:30.864Z,59.22
2022-12-11T13:10:07.419Z,54.30
2022-12-11T13:12:44.205Z,77.93
2022-12-11T13:15:35.329Z,71.53
2022-12-11T13:18:26.296Z,47.10
2022-12-11T13:20:54.994Z,47.42
2022-12-11T13:23:29.382Z,86.93
2022-12-11T13:26:01.471Z,120.17
2022-12-11T13:28:46.603Z,72.60
2022-12-11T13:31:31.912Z,92.20
2022-12-11T13:34:09.864Z,71.43
2022-12-11T13:36:40.468Z,96.30
2022-12-11T13:39:18.292Z,101.30
2022-12-11T13:41:53.683Z,52.22
2022-12-11T13:44:25.728Z,59.30
2022-12-11T13:46:55.879Z,65.93
2022-12-11T13:49:26.551Z,47.50
2022-12-11T13:51:57.454Z,78.13
2022-12-11T13:54:26.579Z,58.20
2022-12-11T13:57:05.502Z,39.90
2022-12-11T13:59:36.825Z,77.97
2022-12-11T14:02:11.936Z,44.08
2022-12-11T14:04:41.217Z,49.58
2022-12-11T14:07:12.031Z,66.00
2022-12-11T14:09:44.491Z,41.15
2022-12-11T14:12:19.509Z,49.17
2022-12-11T14:14:50.839Z,41.90
2022-12-11T14:17:25.021Z,38.92
2022-12-11T14:19:53.588Z,37.13
2022-12-11T14:22:23.621Z,37.38
2022-12-11T14:24:52.549Z,41.25
2022-12-11T14:27:22.416Z,57.63
2022-12-11T14:29:52.292Z,74.72
2022-12-11T14:32:29.127Z,52.63
2022-12-11T14:34:57.443Z,40.10
2022-12-11T14:37:28.540Z,41.00
2022-12-11T14:40:01.274Z,41.08
2022-12-11T14:42:34.936Z,39.42
2022-12-11T14:45:09.394Z,48.85
2022-12-11T14:47:42.096Z,111.68
2022-12-11T14:50:18.956Z,74.70
2022-12-11T14:52:50.160Z,49.22
2022-12-11T14:55:24.013Z,41.67
2022-12-11T14:57:57.800Z,44.45
2022-12-11T15:00:28.455Z,48.03
2022-12-11T15:03:01.535Z,55.03
2022-12-11T15:05:34.461Z,87.50
2022-12-11T15:08:24.383Z,60.78
2022-12-11T15:11:03.608Z,76.00
2022-12-11T15:13:34.263Z,69.13
2022-12-11T15:16:03.988Z,57.65
2022-12-11T15:18:35.001Z,63.53
2022-12-11T15:21:07.400Z,61.97
2022-12-11T15:23:41.323Z,60.75
2022-12-11T15:26:09.038Z,56.67
2022-12-11T15:28:40.052Z,45.08
2022-12-11T15:31:24.076Z,43.00
2022-12-11T15:33:51.799Z,41.13
2022-12-11T15:36:26.803Z,34.85
2022-12-11T15:38:54.740Z,40.28
2022-12-11T15:41:24.601Z,44.42
2022-12-11T15:43:58.950Z,41.22
2022-12-11T15:46:27.620Z,40.17
2022-12-11T15:48:58.402Z,39.25
2022-12-11T15:51:27.586Z,37.15
2022-12-11T15:53:55.555Z,39.80
2022-12-11T15:56:23.520Z,36.67
2022-12-11T15:58:51.402Z,36.55
2022-12-11T16:01:21.458Z,36.72
2022-12-11T16:03:50.422Z,37.88
2022-12-11T16:06:18.816Z,33.20
2022-12-11T16:08:46.749Z,37.17
2022-12-11T16:11:15.258Z,34.03
2022-12-11T16:13:43.633Z,32.30
2022-12-11T16:16:11.751Z,30.98
2022-12-11T16:18:41.200Z,33.47
2022-12-11T16:21:09.115Z,34.40
2022-12-11T16:23:37.078Z,32.88
2022-12-11T16:26:10.116Z,31.08
2022-12-11T16:28:38.032Z,37.95
2022-12-11T16:31:11.871Z,31.30
2022-12-11T16:33:41.623Z,39.58
2022-12-11T16:36:16.857Z,34.28
2022-12-11T16:43:48.974Z,27.27
2022-12-11T16:46:18.946Z,28.52
2022-12-11T16:48:48.656Z,28.75
2022-12-11T16:51:17.070Z,27.25
2022-12-11T16:53:45.096Z,30.55
2022-12-11T16:56:13.654Z,28.05
2022-12-11T16:58:43.008Z,31.50
2022-12-11T17:01:12.253Z,30.42
2022-12-11T17:03:41.092Z,34.85
2022-12-11T17:06:12.325Z,28.42
2022-12-11T17:08:43.105Z,34.95
2022-12-11T17:11:14.186Z,37.83
2022-12-11T17:13:42.722Z,42.28
2022-12-11T17:16:13.824Z,43.22
2022-12-11T17:18:42.185Z,43.40
2022-12-11T17:21:15.774Z,64.32
2022-12-11T17:23:44.781Z,87.68
2022-12-11T17:26:14.985Z,53.20
2022-12-11T17:28:43.492Z,41.50
2022-12-11T17:31:15.355Z,38.00
2022-12-11T17:33:44.623Z,27.98
2022-12-11T17:36:16.577Z,31.00
2022-12-11T17:38:45.094Z,27.77
2022-12-11T17:41:20.328Z,34.22
2022-12-11T17:43:49.989Z,28.00
2022-12-11T17:46:18.792Z,29.73
2022-12-11T17:48:47.009Z,28.63
2022-12-11T17:51:22.401Z,31.63
2022-12-11T17:53:50.718Z,28.50
2022-12-11T17:56:18.674Z,24.85
2022-12-11T17:58:47.324Z,26.13
2022-12-11T18:01:15.533Z,36.70
2022-12-11T18:03:43.978Z,34.45
2022-12-11T18:06:15.156Z,45.85
2022-12-11T18:08:46.579Z,37.55
2022-12-11T18:11:16.415Z,34.90
2022-12-11T18:13:47.034Z,49.38
2022-12-11T18:16:18.224Z,38.65
2022-12-11T18:18:47.424Z,44.83
2022-12-11T18:21:16.902Z,39.25
2022-12-11T18:23:47.427Z,46.08
2022-12-11T18:26:15.941Z,44.97
2022-12-11T18:28:44.694Z,46.97
2022-12-11T18:31:14.430Z,43.90
2022-12-11T18:33:45.146Z,42.13
2022-12-11T18:36:14.863Z,45.00
2022-12-11T18:38:44.472Z,42.03
2022-12-11T18:41:17.919Z,53.75
2022-12-11T18:43:48.358Z,57.63
2022-12-11T18:46:19.882Z,60.78
2022-12-11T18:48:49.062Z,59.15
2022-12-11T18:51:19.575Z,65.18
2022-12-11T18:53:47.778Z,80.78
2022-12-11T18:56:20.271Z,69.07
2022-12-11T18:58:49.173Z,57.90
2022-12-11T19:01:20.509Z,54.97
2022-12-11T19:03:49.191Z,52.55
2022-12-11T19:06:19.753Z,47.13
2022-12-11T19:08:48.386Z,61.17
2022-12-11T19:11:20.404Z,50.88
2022-12-11T19:13:49.497Z,48.25
2022-12-11T19:16:19.440Z,48.47
2022-12-11T19:18:48.519Z,46.88
2022-12-11T19:21:18.883Z,48.10
2022-12-11T19:23:48.296Z,58.03
2022-12-11T19:26:20.208Z,41.72
2022-12-11T19:28:50.779Z,60.70
2022-12-11T19:31:21.779Z,66.38
2022-12-11T19:33:50.330Z,62.75
2022-12-11T19:36:20.981Z,47.70
2022-12-11T19:38:50.234Z,41.20
2022-12-11T19:41:23.439Z,44.58
2022-12-11T19:43:52.297Z,47.33
2022-12-11T19:46:22.753Z,37.22
2022-12-11T19:48:52.503Z,38.28
2022-12-11T19:51:22.784Z,37.85
2022-12-11T19:53:51.268Z,39.92
2022-12-11T19:56:21.601Z,48.40
2022-12-11T19:58:53.595Z,42.08
2022-12-11T20:01:25.075Z,39.85
2022-12-11T20:03:57.752Z,39.85
2022-12-11T20:06:25.786Z,57.63
2022-12-11T20:08:53.819Z,62.22
2022-12-11T20:11:23.289Z,43.15
2022-12-11T20:13:51.634Z,48.25
2022-12-11T20:16:39.195Z,80.38
2022-12-11T20:19:08.721Z,38.42
2022-12-11T20:21:36.587Z,37.50
2022-12-11T20:24:04.798Z,44.10
2022-12-11T20:26:36.469Z,38.20
2022-12-11T20:29:07.406Z,34.30
2022-12-11T20:31:38.697Z,38.63
2022-12-11T20:34:07.405Z,159.45
2022-12-11T20:36:35.422Z,94.38
2022-12-11T20:39:03.511Z,120.07
2022-12-11T20:41:32.566Z,59.97
2022-12-11T20:44:02.671Z,58.45
2022-12-11T20:46:30.750Z,47.83
2022-12-11T20:49:00.675Z,44.03
2022-12-11T20:51:32.773Z,41.15
2022-12-11T20:54:01.505Z,42.00
2022-12-11T20:56:32.155Z,45.03
2022-12-11T20:59:02.516Z,45.30
2022-12-11T21:01:32.923Z,96.25
2022-12-11T21:04:01.129Z,93.28
2022-12-11T21:06:31.821Z,71.45
2022-12-11T21:09:00.869Z,53.50
2022-12-11T21:11:29.465Z,42.63
2022-12-11T21:13:57.325Z,44.38
2022-12-11T21:16:31.906Z,42.03
2022-12-11T21:19:00.417Z,41.05
2022-12-11T21:21:28.423Z,39.22
2022-12-11T21:23:56.491Z,37.20
2022-12-11T21:26:24.426Z,39.50
2022-12-11T21:28:53.291Z,39.25
2022-12-11T21:31:21.455Z,45.13
2022-12-11T21:33:50.904Z,46.25
2022-12-11T21:36:18.968Z,34.55
2022-12-11T21:38:47.687Z,36.45
2022-12-11T21:41:18.103Z,40.83
2022-12-11T21:45:21.228Z,34.92
2022-12-11T21:46:37.039Z,46.20
2022-12-11T21:49:08.336Z,44.40
2022-12-11T21:51:41.489Z,50.63
2022-12-11T21:54:15.552Z,44.40
2022-12-11T21:56:44.512Z,44.60
2022-12-11T21:59:12.435Z,43.58
2022-12-11T22:01:42.976Z,44.25
2022-12-11T22:04:13.568Z,56.47
2022-12-11T22:06:47.089Z,40.38
2022-12-11T22:09:15.496Z,38.92
2022-12-11T22:11:45.275Z,40.25
2022-12-11T22:14:14.313Z,42.15
2022-12-11T22:16:42.542Z,39.47
2022-12-11T22:19:11.336Z,35.80
2022-12-11T22:21:41.140Z,34.78
2022-12-11T22:24:09.420Z,42.85
2022-12-11T22:26:37.253Z,43.78
2022-12-11T22:29:05.177Z,42.38
2022-12-11T22:31:33.522Z,45.45
2022-12-11T22:34:01.476Z,42.05
2022-12-11T22:36:29.436Z,41.33
2022-12-11T22:39:00.929Z,39.20
2022-12-11T22:41:31.357Z,34.78
2022-12-11T22:44:00.559Z,35.38
2022-12-11T22:46:30.969Z,38.17
2022-12-11T22:49:04.587Z,40.75
2022-12-11T22:51:32.431Z,55.17
2022-12-11T22:54:01.934Z,40.85
2022-12-11T22:56:29.933Z,62.95
2022-12-11T22:58:58.369Z,80.88
2022-12-11T23:01:28.230Z,72.10
2022-12-11T23:03:59.071Z,64.13
2022-12-11T23:06:26.974Z,45.22
2022-12-11T23:08:59.263Z,47.15
2022-12-11T23:11:31.531Z,43.80
2022-12-11T23:13:59.616Z,37.45
2022-12-11T23:16:28.971Z,40.10
2022-12-11T23:18:58.113Z,45.47
2022-12-11T23:21:27.980Z,40.13
2022-12-11T23:23:56.268Z,35.47
2022-12-11T23:26:24.664Z,38.72
2022-12-11T23:28:55.082Z,36.05
2022-12-11T23:31:24.156Z,36.95
2022-12-11T23:33:52.136Z,38.35
2022-12-11T23:36:20.733Z,45.35
2022-12-11T23:38:54.309Z,35.40
2022-12-11T23:41:23.236Z,40.83
2022-12-11T23:43:51.199Z,35.95
2022-12-11T23:46:24.079Z,38.95
2022-12-11T23:48:53.646Z,43.78
2022-12-11T23:51:22.997Z,36.95
2022-12-11T23:53:51.314Z,40.75
2022-12-11T23:56:23.084Z,43.78
2022-12-11T23:58:52.263Z,35.60
